sensor_id;sensor_type;location;lat;lon;timestamp;pressure;altitude;pressure_sealevel;temperature;humidity
10706;BME280;5404;42.656;23.336;2024-03-17T00:00:50;95020.69;;;5.38;76.27
10706;BME280;5404;42.656;23.336;2024-03-17T00:03:15;95003.19;;;5.25;76.38
10706;BME280;5404;42.656;23.336;2024-03-17T00:05:41;95020.31;;;5.40;75.94
10706;BME280;5404;42.656;23.336;2024-03-17T00:08:07;95016.28;;;5.23;76.88
10706;BME280;5404;42.656;23.336;2024-03-17T00:10:33;95022.44;;;5.24;77.20
10706;BME280;5404;42.656;23.336;2024-03-17T00:12:59;95010.78;;;5.16;77.28
10706;BME280;5404;42.656;23.336;2024-03-17T00:15:26;95017.38;;;5.19;77.01
10706;BME280;5404;42.656;23.336;2024-03-17T00:17:51;95010.00;;;5.16;77.18
10706;BME280;5404;42.656;23.336;2024-03-17T00:20:17;95019.97;;;5.11;77.50
10706;BME280;5404;42.656;23.336;2024-03-17T00:22:49;95019.97;;;5.08;77.30
10706;BME280;5404;42.656;23.336;2024-03-17T00:25:16;95004.38;;;4.94;77.30
10706;BME280;5404;42.656;23.336;2024-03-17T00:27:45;95020.66;;;5.01;77.80
10706;BME280;5404;42.656;23.336;2024-03-17T00:30:13;95015.69;;;5.07;77.70
10706;BME280;5404;42.656;23.336;2024-03-17T00:32:39;95016.06;;;5.05;77.23
10706;BME280;5404;42.656;23.336;2024-03-17T00:35:09;95012.63;;;5.08;77.17
10706;BME280;5404;42.656;23.336;2024-03-17T00:37:36;94971.06;;;4.83;77.28
10706;BME280;5404;42.656;23.336;2024-03-17T00:40:03;95002.47;;;4.98;77.68
10706;BME280;5404;42.656;23.336;2024-03-17T00:42:29;94999.41;;;4.96;77.89
10706;BME280;5404;42.656;23.336;2024-03-17T00:44:56;95005.78;;;4.81;77.88
10706;BME280;5404;42.656;23.336;2024-03-17T00:47:21;95004.63;;;4.82;78.59
10706;BME280;5404;42.656;23.336;2024-03-17T00:49:47;95001.09;;;4.78;78.47
10706;BME280;5404;42.656;23.336;2024-03-17T00:52:15;95011.53;;;4.80;78.09
10706;BME280;5404;42.656;23.336;2024-03-17T00:54:41;94998.63;;;4.66;78.33
10706;BME280;5404;42.656;23.336;2024-03-17T00:57:06;95014.56;;;4.75;78.21
10706;BME280;5404;42.656;23.336;2024-03-17T00:59:32;95018.81;;;4.76;78.24
10706;BME280;5404;42.656;23.336;2024-03-17T01:01:58;95004.66;;;4.56;78.29
10706;BME280;5404;42.656;23.336;2024-03-17T01:04:23;95017.78;;;4.54;78.09
10706;BME280;5404;42.656;23.336;2024-03-17T01:06:49;95019.19;;;4.48;78.54
10706;BME280;5404;42.656;23.336;2024-03-17T01:09:14;95011.75;;;4.38;79.17
10706;BME280;5404;42.656;23.336;2024-03-17T01:11:41;95013.00;;;4.44;78.87
10706;BME280;5404;42.656;23.336;2024-03-17T01:14:06;95010.63;;;4.39;79.27
10706;BME280;5404;42.656;23.336;2024-03-17T01:16:33;95010.53;;;4.31;79.72
10706;BME280;5404;42.656;23.336;2024-03-17T01:18:58;95010.19;;;4.37;79.40
10706;BME280;5404;42.656;23.336;2024-03-17T01:21:24;95017.94;;;4.38;79.49
10706;BME280;5404;42.656;23.336;2024-03-17T01:23:49;95016.72;;;4.36;80.15
10706;BME280;5404;42.656;23.336;2024-03-17T01:26:15;95004.72;;;4.29;79.89
10706;BME280;5404;42.656;23.336;2024-03-17T01:28:40;94947.66;;;3.98;79.59
10706;BME280;5404;42.656;23.336;2024-03-17T01:31:06;95016.94;;;4.50;79.76
10706;BME280;5404;42.656;23.336;2024-03-17T01:33:32;95015.75;;;4.47;79.09
10706;BME280;5404;42.656;23.336;2024-03-17T01:35:58;95001.91;;;4.22;79.11
10706;BME280;5404;42.656;23.336;2024-03-17T01:38:23;95022.03;;;4.28;79.15
10706;BME280;5404;42.656;23.336;2024-03-17T01:40:48;95014.94;;;4.17;79.89
10706;BME280;5404;42.656;23.336;2024-03-17T01:43:14;95011.88;;;4.18;79.77
10706;BME280;5404;42.656;23.336;2024-03-17T01:45:39;95014.25;;;4.23;79.95
10706;BME280;5404;42.656;23.336;2024-03-17T01:48:11;95022.16;;;4.09;80.39
10706;BME280;5404;42.656;23.336;2024-03-17T01:50:37;94997.59;;;3.91;80.45
10706;BME280;5404;42.656;23.336;2024-03-17T01:53:05;95019.81;;;4.08;81.05
10706;BME280;5404;42.656;23.336;2024-03-17T01:55:38;95015.72;;;4.17;80.33
10706;BME280;5404;42.656;23.336;2024-03-17T01:58:05;94990.81;;;4.01;80.68
10706;BME280;5404;42.656;23.336;2024-03-17T02:00:34;95006.44;;;4.15;80.51
10706;BME280;5404;42.656;23.336;2024-03-17T02:03:03;95005.91;;;4.06;80.25
10706;BME280;5404;42.656;23.336;2024-03-17T02:05:29;95012.19;;;4.13;80.16
10706;BME280;5404;42.656;23.336;2024-03-17T02:07:54;95014.38;;;4.04;80.69
10706;BME280;5404;42.656;23.336;2024-03-17T02:10:19;94988.34;;;3.89;80.29
10706;BME280;5404;42.656;23.336;2024-03-17T02:12:47;95018.56;;;4.02;80.20
10706;BME280;5404;42.656;23.336;2024-03-17T02:15:13;95018.50;;;3.98;80.17
10706;BME280;5404;42.656;23.336;2024-03-17T02:17:39;95020.91;;;4.03;79.71
10706;BME280;5404;42.656;23.336;2024-03-17T02:20:05;95023.41;;;3.92;80.01
10706;BME280;5404;42.656;23.336;2024-03-17T02:22:36;95016.44;;;3.88;81.01
10706;BME280;5404;42.656;23.336;2024-03-17T02:25:02;95005.97;;;3.83;80.27
10706;BME280;5404;42.656;23.336;2024-03-17T02:27:28;95019.44;;;3.83;80.69
10706;BME280;5404;42.656;23.336;2024-03-17T02:29:54;94992.50;;;3.60;80.80
10706;BME280;5404;42.656;23.336;2024-03-17T02:32:20;95010.06;;;3.77;80.80
10706;BME280;5404;42.656;23.336;2024-03-17T02:34:47;95023.66;;;3.84;80.70
10706;BME280;5404;42.656;23.336;2024-03-17T02:37:13;95018.66;;;3.82;80.92
10706;BME280;5404;42.656;23.336;2024-03-17T02:39:39;95018.22;;;3.80;80.77
10706;BME280;5404;42.656;23.336;2024-03-17T02:42:08;95019.00;;;3.81;81.54
10706;BME280;5404;42.656;23.336;2024-03-17T02:44:35;95017.03;;;3.78;81.64
10706;BME280;5404;42.656;23.336;2024-03-17T02:47:03;95009.38;;;3.80;81.36
10706;BME280;5404;42.656;23.336;2024-03-17T02:49:35;95011.28;;;3.79;81.96
10706;BME280;5404;42.656;23.336;2024-03-17T02:52:15;95002.84;;;3.81;81.81
10706;BME280;5404;42.656;23.336;2024-03-17T02:54:40;95006.34;;;3.85;81.75
10706;BME280;5404;42.656;23.336;2024-03-17T02:57:06;94948.28;;;3.38;80.88
10706;BME280;5404;42.656;23.336;2024-03-17T02:59:32;95006.19;;;3.74;80.66
10706;BME280;5404;42.656;23.336;2024-03-17T03:01:59;95003.88;;;3.73;80.72
10706;BME280;5404;42.656;23.336;2024-03-17T03:04:25;95004.88;;;3.65;80.72
10706;BME280;5404;42.656;23.336;2024-03-17T03:06:50;95009.84;;;3.63;80.53
10706;BME280;5404;42.656;23.336;2024-03-17T03:09:16;95005.50;;;3.54;81.89
10706;BME280;5404;42.656;23.336;2024-03-17T03:11:47;95008.53;;;3.53;82.31
10706;BME280;5404;42.656;23.336;2024-03-17T03:14:12;95001.66;;;3.55;81.97
10706;BME280;5404;42.656;23.336;2024-03-17T03:16:38;94992.06;;;3.58;81.79
10706;BME280;5404;42.656;23.336;2024-03-17T03:19:04;95007.34;;;3.73;81.24
10706;BME280;5404;42.656;23.336;2024-03-17T03:21:30;95003.53;;;3.78;81.27
10706;BME280;5404;42.656;23.336;2024-03-17T03:23:56;94996.66;;;3.80;81.21
10706;BME280;5404;42.656;23.336;2024-03-17T03:26:21;94998.16;;;3.78;81.36
10706;BME280;5404;42.656;23.336;2024-03-17T03:28:49;94995.31;;;3.67;80.59
10706;BME280;5404;42.656;23.336;2024-03-17T03:31:19;94911.56;;;3.04;80.63
10706;BME280;5404;42.656;23.336;2024-03-17T03:33:45;95004.88;;;3.65;80.66
10706;BME280;5404;42.656;23.336;2024-03-17T03:36:11;94999.22;;;3.47;80.64
10706;BME280;5404;42.656;23.336;2024-03-17T03:38:38;95012.03;;;3.53;80.11
10706;BME280;5404;42.656;23.336;2024-03-17T03:41:08;95011.53;;;3.48;80.48
10706;BME280;5404;42.656;23.336;2024-03-17T03:43:34;95017.63;;;3.45;80.77
10706;BME280;5404;42.656;23.336;2024-03-17T03:46:00;95016.03;;;3.40;80.60
10706;BME280;5404;42.656;23.336;2024-03-17T03:48:26;95017.75;;;3.29;81.02
10706;BME280;5404;42.656;23.336;2024-03-17T03:50:51;95017.16;;;3.39;80.49
10706;BME280;5404;42.656;23.336;2024-03-17T03:53:17;95024.91;;;3.22;81.29
10706;BME280;5404;42.656;23.336;2024-03-17T03:55:42;95029.16;;;3.23;81.52
10706;BME280;5404;42.656;23.336;2024-03-17T03:58:08;95019.47;;;3.18;82.12
10706;BME280;5404;42.656;23.336;2024-03-17T04:00:33;95032.63;;;3.23;82.26
10706;BME280;5404;42.656;23.336;2024-03-17T04:02:59;95036.53;;;3.26;82.11
10706;BME280;5404;42.656;23.336;2024-03-17T04:05:27;95034.81;;;3.37;82.35
10706;BME280;5404;42.656;23.336;2024-03-17T04:07:52;95036.03;;;3.39;80.88
10706;BME280;5404;42.656;23.336;2024-03-17T04:10:18;95039.75;;;3.35;81.73
10706;BME280;5404;42.656;23.336;2024-03-17T04:12:46;95035.13;;;3.32;80.61
10706;BME280;5404;42.656;23.336;2024-03-17T04:15:11;95040.41;;;3.28;80.59
10706;BME280;5404;42.656;23.336;2024-03-17T04:17:37;95040.00;;;3.26;81.47
10706;BME280;5404;42.656;23.336;2024-03-17T04:20:04;95038.31;;;3.18;80.80
10706;BME280;5404;42.656;23.336;2024-03-17T04:22:49;95046.41;;;3.18;80.73
10706;BME280;5404;42.656;23.336;2024-03-17T04:25:15;95046.19;;;3.07;80.82
10706;BME280;5404;42.656;23.336;2024-03-17T04:27:40;95050.00;;;3.06;80.52
10706;BME280;5404;42.656;23.336;2024-03-17T04:30:06;95049.94;;;3.03;81.26
10706;BME280;5404;42.656;23.336;2024-03-17T04:32:32;95047.56;;;2.98;81.09
10706;BME280;5404;42.656;23.336;2024-03-17T04:34:59;95053.72;;;2.98;81.20
10706;BME280;5404;42.656;23.336;2024-03-17T04:37:24;95062.00;;;3.09;80.94
10706;BME280;5404;42.656;23.336;2024-03-17T04:39:50;95069.63;;;3.07;80.99
10706;BME280;5404;42.656;23.336;2024-03-17T04:42:17;95066.28;;;3.13;80.78
10706;BME280;5404;42.656;23.336;2024-03-17T04:44:43;95071.63;;;3.10;80.79
10706;BME280;5404;42.656;23.336;2024-03-17T04:47:09;95075.88;;;3.11;80.88
10706;BME280;5404;42.656;23.336;2024-03-17T04:49:40;95055.25;;;2.99;80.86
10706;BME280;5404;42.656;23.336;2024-03-17T04:52:06;95052.06;;;2.94;80.82
10706;BME280;5404;42.656;23.336;2024-03-17T04:54:35;95079.41;;;3.15;80.54
10706;BME280;5404;42.656;23.336;2024-03-17T04:57:00;95087.91;;;3.17;79.86
10706;BME280;5404;42.656;23.336;2024-03-17T04:59:26;95090.19;;;3.15;80.60
10706;BME280;5404;42.656;23.336;2024-03-17T05:01:52;95087.19;;;3.20;80.33
10706;BME280;5404;42.656;23.336;2024-03-17T05:04:18;95084.50;;;3.20;80.34
10706;BME280;5404;42.656;23.336;2024-03-17T05:06:43;95093.50;;;3.28;80.46
10706;BME280;5404;42.656;23.336;2024-03-17T05:09:13;95086.72;;;3.34;79.97
10706;BME280;5404;42.656;23.336;2024-03-17T05:11:39;95093.28;;;3.36;79.69
10706;BME280;5404;42.656;23.336;2024-03-17T05:14:05;95096.22;;;3.50;79.54
10706;BME280;5404;42.656;23.336;2024-03-17T05:16:30;95102.47;;;3.54;79.76
10706;BME280;5404;42.656;23.336;2024-03-17T05:18:56;95085.41;;;3.47;79.74
10706;BME280;5404;42.656;23.336;2024-03-17T05:21:21;95110.41;;;3.67;78.79
10706;BME280;5404;42.656;23.336;2024-03-17T05:23:51;95106.81;;;3.82;79.72
10706;BME280;5404;42.656;23.336;2024-03-17T05:26:17;95123.22;;;3.96;78.51
10706;BME280;5404;42.656;23.336;2024-03-17T05:28:43;95110.94;;;3.99;78.35
10706;BME280;5404;42.656;23.336;2024-03-17T05:31:09;95107.19;;;4.03;77.99
10706;BME280;5404;42.656;23.336;2024-03-17T05:33:34;95112.91;;;4.24;78.79
10706;BME280;5404;42.656;23.336;2024-03-17T05:36:02;95117.06;;;4.45;78.03
10706;BME280;5404;42.656;23.336;2024-03-17T05:38:29;95121.13;;;4.58;78.13
10706;BME280;5404;42.656;23.336;2024-03-17T05:41:02;95101.38;;;4.80;77.69
10706;BME280;5404;42.656;23.336;2024-03-17T05:43:29;95104.59;;;4.89;76.89
10706;BME280;5404;42.656;23.336;2024-03-17T05:46:00;95105.25;;;5.09;76.55
10706;BME280;5404;42.656;23.336;2024-03-17T05:48:27;95097.34;;;5.27;76.08
10706;BME280;5404;42.656;23.336;2024-03-17T05:50:52;95100.59;;;5.39;75.53
10706;BME280;5404;42.656;23.336;2024-03-17T05:53:21;95101.44;;;5.47;75.35
10706;BME280;5404;42.656;23.336;2024-03-17T05:55:49;95099.13;;;5.49;75.69
10706;BME280;5404;42.656;23.336;2024-03-17T05:58:15;95094.50;;;5.46;75.06
10706;BME280;5404;42.656;23.336;2024-03-17T06:00:40;95090.38;;;5.59;75.18
10706;BME280;5404;42.656;23.336;2024-03-17T06:03:06;95026.63;;;5.18;74.08
10706;BME280;5404;42.656;23.336;2024-03-17T06:05:36;95097.44;;;5.71;74.06
10706;BME280;5404;42.656;23.336;2024-03-17T06:08:03;95107.25;;;5.86;74.06
10706;BME280;5404;42.656;23.336;2024-03-17T06:10:33;95108.03;;;5.86;74.16
10706;BME280;5404;42.656;23.336;2024-03-17T06:12:59;95110.72;;;5.86;73.64
10706;BME280;5404;42.656;23.336;2024-03-17T06:15:26;95113.56;;;5.97;73.70
10706;BME280;5404;42.656;23.336;2024-03-17T06:17:54;95115.22;;;6.09;73.30
10706;BME280;5404;42.656;23.336;2024-03-17T06:20:21;95099.00;;;6.09;73.29
10706;BME280;5404;42.656;23.336;2024-03-17T06:22:48;95092.44;;;6.10;72.73
10706;BME280;5404;42.656;23.336;2024-03-17T06:25:14;95118.56;;;6.39;72.55
10706;BME280;5404;42.656;23.336;2024-03-17T06:27:39;95114.00;;;6.50;72.07
10706;BME280;5404;42.656;23.336;2024-03-17T06:30:05;95090.38;;;6.44;71.60
10706;BME280;5404;42.656;23.336;2024-03-17T06:32:35;95058.56;;;6.30;71.63
10706;BME280;5404;42.656;23.336;2024-03-17T06:35:03;95127.69;;;6.72;70.73
10706;BME280;5404;42.656;23.336;2024-03-17T06:37:29;95137.75;;;6.71;70.97
10706;BME280;5404;42.656;23.336;2024-03-17T06:39:54;95132.00;;;6.80;71.15
10706;BME280;5404;42.656;23.336;2024-03-17T06:42:20;95140.97;;;6.91;70.45
10706;BME280;5404;42.656;23.336;2024-03-17T06:44:45;95136.41;;;7.02;70.65
10706;BME280;5404;42.656;23.336;2024-03-17T06:47:12;95139.94;;;7.13;70.27
10706;BME280;5404;42.656;23.336;2024-03-17T06:49:37;95137.59;;;7.12;69.90
10706;BME280;5404;42.656;23.336;2024-03-17T06:52:03;95138.41;;;7.19;69.75
10706;BME280;5404;42.656;23.336;2024-03-17T06:54:29;95138.44;;;7.26;69.31
10706;BME280;5404;42.656;23.336;2024-03-17T06:56:54;95075.19;;;6.87;69.16
10706;BME280;5404;42.656;23.336;2024-03-17T06:59:19;95141.25;;;7.44;68.49
10706;BME280;5404;42.656;23.336;2024-03-17T07:01:48;95137.03;;;7.54;68.27
10706;BME280;5404;42.656;23.336;2024-03-17T07:04:13;95141.34;;;7.69;67.67
10706;BME280;5404;42.656;23.336;2024-03-17T07:06:39;95135.59;;;7.88;67.15
10706;BME280;5404;42.656;23.336;2024-03-17T07:09:04;95133.72;;;8.17;66.15
10706;BME280;5404;42.656;23.336;2024-03-17T07:11:30;95134.91;;;8.48;66.03
10706;BME280;5404;42.656;23.336;2024-03-17T07:13:57;95134.91;;;8.48;64.46
10706;BME280;5404;42.656;23.336;2024-03-17T07:16:22;95135.72;;;8.59;64.38
10706;BME280;5404;42.656;23.336;2024-03-17T07:18:50;95129.47;;;8.69;65.19
10706;BME280;5404;42.656;23.336;2024-03-17T07:21:15;95130.25;;;8.94;63.60
10706;BME280;5404;42.656;23.336;2024-03-17T07:23:41;95127.09;;;9.07;64.01
10706;BME280;5404;42.656;23.336;2024-03-17T07:26:06;95134.13;;;8.93;63.18
10706;BME280;5404;42.656;23.336;2024-03-17T07:28:32;95119.38;;;8.87;63.10
10706;BME280;5404;42.656;23.336;2024-03-17T07:30:58;95115.09;;;8.90;62.45
10706;BME280;5404;42.656;23.336;2024-03-17T07:33:25;95122.06;;;9.09;62.10
10706;BME280;5404;42.656;23.336;2024-03-17T07:35:58;95129.66;;;9.56;62.27
10706;BME280;5404;42.656;23.336;2024-03-17T07:38:29;95122.34;;;9.42;61.00
10706;BME280;5404;42.656;23.336;2024-03-17T07:43:23;95116.53;;;10.13;59.12
10706;BME280;5404;42.656;23.336;2024-03-17T07:45:59;95118.38;;;10.34;58.50
10706;BME280;5404;42.656;23.336;2024-03-17T07:48:25;95132.09;;;10.20;59.15
10706;BME280;5404;42.656;23.336;2024-03-17T07:50:57;95111.97;;;9.96;58.90
10706;BME280;5404;42.656;23.336;2024-03-17T07:53:23;95111.66;;;9.83;59.59
10706;BME280;5404;42.656;23.336;2024-03-17T07:56:02;95125.84;;;10.16;58.13
10706;BME280;5404;42.656;23.336;2024-03-17T07:58:32;95137.75;;;9.77;58.60
10706;BME280;5404;42.656;23.336;2024-03-17T08:01:03;95139.25;;;9.86;58.17
10706;BME280;5404;42.656;23.336;2024-03-17T08:03:33;95132.19;;;9.95;57.76
10706;BME280;5404;42.656;23.336;2024-03-17T08:06:03;95123.75;;;9.75;58.10
10706;BME280;5404;42.656;23.336;2024-03-17T08:08:28;95109.84;;;9.52;58.68
10706;BME280;5404;42.656;23.336;2024-03-17T08:10:54;95083.09;;;9.40;59.02
10706;BME280;5404;42.656;23.336;2024-03-17T08:13:20;95137.63;;;9.95;58.67
10706;BME280;5404;42.656;23.336;2024-03-17T08:15:54;95132.56;;;9.97;57.47
10706;BME280;5404;42.656;23.336;2024-03-17T08:18:20;95125.84;;;10.16;57.47
10706;BME280;5404;42.656;23.336;2024-03-17T08:20:45;95121.19;;;10.20;57.33
10706;BME280;5404;42.656;23.336;2024-03-17T08:23:12;95123.09;;;10.23;56.57
10706;BME280;5404;42.656;23.336;2024-03-17T08:25:38;95047.16;;;9.77;56.93
10706;BME280;5404;42.656;23.336;2024-03-17T08:28:03;95124.59;;;10.31;55.63
10706;BME280;5404;42.656;23.336;2024-03-17T08:30:29;95118.03;;;10.29;56.01
10706;BME280;5404;42.656;23.336;2024-03-17T08:32:57;95126.53;;;10.34;56.17
10706;BME280;5404;42.656;23.336;2024-03-17T08:35:23;95125.66;;;10.48;55.90
10706;BME280;5404;42.656;23.336;2024-03-17T08:37:48;95122.38;;;10.71;55.72
10706;BME280;5404;42.656;23.336;2024-03-17T08:40:14;95107.75;;;10.50;55.80
10706;BME280;5404;42.656;23.336;2024-03-17T08:42:39;95121.28;;;11.02;54.76
10706;BME280;5404;42.656;23.336;2024-03-17T08:45:06;95117.69;;;11.12;54.07
10706;BME280;5404;42.656;23.336;2024-03-17T08:47:31;95101.19;;;11.26;53.54
10706;BME280;5404;42.656;23.336;2024-03-17T08:49:57;95101.81;;;11.04;53.94
10706;BME280;5404;42.656;23.336;2024-03-17T08:52:23;95101.66;;;11.18;54.59
10706;BME280;5404;42.656;23.336;2024-03-17T08:54:49;95083.56;;;10.97;54.18
10706;BME280;5404;42.656;23.336;2024-03-17T08:57:17;95095.91;;;11.09;54.65
10706;BME280;5404;42.656;23.336;2024-03-17T08:59:45;95080.50;;;11.59;53.56
10706;BME280;5404;42.656;23.336;2024-03-17T09:02:13;95096.69;;;12.07;52.98
10706;BME280;5404;42.656;23.336;2024-03-17T09:04:42;95096.53;;;11.57;53.36
10706;BME280;5404;42.656;23.336;2024-03-17T09:07:08;95092.75;;;11.48;53.54
10706;BME280;5404;42.656;23.336;2024-03-17T09:09:33;95102.75;;;12.69;51.60
10706;BME280;5404;42.656;23.336;2024-03-17T09:11:58;95092.13;;;13.41;49.58
10706;BME280;5404;42.656;23.336;2024-03-17T09:14:24;95077.94;;;14.54;46.74
10706;BME280;5404;42.656;23.336;2024-03-17T09:16:50;95078.41;;;15.71;44.33
10706;BME280;5404;42.656;23.336;2024-03-17T09:19:15;95066.38;;;16.82;42.23
10706;BME280;5404;42.656;23.336;2024-03-17T09:21:41;95016.63;;;17.55;39.36
10706;BME280;5404;42.656;23.336;2024-03-17T09:24:07;95052.47;;;18.48;37.86
10706;BME280;5404;42.656;23.336;2024-03-17T09:26:36;95061.09;;;19.90;35.75
10706;BME280;5404;42.656;23.336;2024-03-17T09:29:05;95055.91;;;20.43;34.45
10706;BME280;5404;42.656;23.336;2024-03-17T09:31:30;95063.06;;;20.08;34.98
10706;BME280;5404;42.656;23.336;2024-03-17T09:33:59;95061.41;;;19.10;35.77
10706;BME280;5404;42.656;23.336;2024-03-17T09:36:24;95059.81;;;18.02;37.24
10706;BME280;5404;42.656;23.336;2024-03-17T09:38:50;95041.59;;;19.75;35.34
10706;BME280;5404;42.656;23.336;2024-03-17T09:41:20;95041.16;;;18.95;34.22
10706;BME280;5404;42.656;23.336;2024-03-17T09:43:47;95045.31;;;18.10;35.04
10706;BME280;5404;42.656;23.336;2024-03-17T09:46:13;95023.13;;;18.63;33.56
10706;BME280;5404;42.656;23.336;2024-03-17T09:48:40;95051.97;;;18.71;33.08
10706;BME280;5404;42.656;23.336;2024-03-17T09:51:05;95052.53;;;20.39;31.66
10706;BME280;5404;42.656;23.336;2024-03-17T09:53:34;95040.84;;;18.44;33.70
10706;BME280;5404;42.656;23.336;2024-03-17T09:56:09;95045.38;;;17.10;35.97
10706;BME280;5404;42.656;23.336;2024-03-17T09:58:36;95023.06;;;16.96;35.83
10706;BME280;5404;42.656;23.336;2024-03-17T10:01:02;95050.09;;;17.10;36.33
10706;BME280;5404;42.656;23.336;2024-03-17T10:06:16;95048.28;;;18.65;33.55
10706;BME280;5404;42.656;23.336;2024-03-17T10:08:52;95043.25;;;18.72;30.21
10706;BME280;5404;42.656;23.336;2024-03-17T10:11:20;95038.34;;;17.53;31.33
10706;BME280;5404;42.656;23.336;2024-03-17T10:13:47;95049.41;;;16.84;32.76
10706;BME280;5404;42.656;23.336;2024-03-17T10:16:25;95048.66;;;15.95;35.09
10706;BME280;5404;42.656;23.336;2024-03-17T10:19:05;95024.22;;;15.01;36.32
10706;BME280;5404;42.656;23.336;2024-03-17T10:21:32;95054.63;;;16.44;35.61
10706;BME280;5404;42.656;23.336;2024-03-17T10:24:12;95047.81;;;17.30;34.63
10706;BME280;5404;42.656;23.336;2024-03-17T10:26:51;95048.44;;;17.12;34.55
10706;BME280;5404;42.656;23.336;2024-03-17T10:29:31;95053.16;;;16.90;34.33
10706;BME280;5404;42.656;23.336;2024-03-17T10:32:03;95047.13;;;16.06;36.32
10706;BME280;5404;42.656;23.336;2024-03-17T10:34:30;95050.13;;;16.12;36.23
10706;BME280;5404;42.656;23.336;2024-03-17T10:37:10;95049.34;;;16.12;34.94
10706;BME280;5404;42.656;23.336;2024-03-17T10:39:40;95043.78;;;15.03;35.41
10706;BME280;5404;42.656;23.336;2024-03-17T10:42:07;95053.75;;;14.81;35.57
10706;BME280;5404;42.656;23.336;2024-03-17T10:44:41;95045.53;;;14.32;37.40
10706;BME280;5404;42.656;23.336;2024-03-17T10:47:15;95053.53;;;13.91;38.27
10706;BME280;5404;42.656;23.336;2024-03-17T10:49:43;95057.38;;;13.93;38.68
10706;BME280;5404;42.656;23.336;2024-03-17T10:52:16;95047.56;;;14.28;37.25
10706;BME280;5404;42.656;23.336;2024-03-17T10:54:50;95049.16;;;14.45;36.14
10706;BME280;5404;42.656;23.336;2024-03-17T10:57:45;95037.53;;;14.41;35.83
10706;BME280;5404;42.656;23.336;2024-03-17T11:00:13;95012.16;;;14.54;33.89
10706;BME280;5404;42.656;23.336;2024-03-17T11:02:43;95035.69;;;14.51;34.49
10706;BME280;5404;42.656;23.336;2024-03-17T11:07:48;95033.19;;;14.24;36.79
10706;BME280;5404;42.656;23.336;2024-03-17T11:10:28;95029.38;;;14.38;37.41
10706;BME280;5404;42.656;23.336;2024-03-17T11:12:55;95029.72;;;14.40;36.06
10706;BME280;5404;42.656;23.336;2024-03-17T11:17:53;95023.06;;;14.86;36.60
10706;BME280;5404;42.656;23.336;2024-03-17T11:20:27;95029.69;;;14.24;39.35
10706;BME280;5404;42.656;23.336;2024-03-17T11:23:02;95020.53;;;14.63;39.72
10706;BME280;5404;42.656;23.336;2024-03-17T11:28:03;95015.19;;;15.58;38.69
10706;BME280;5404;42.656;23.336;2024-03-17T11:30:49;95007.34;;;15.44;38.91
10706;BME280;5404;42.656;23.336;2024-03-17T11:39:06;95012.41;;;15.04;38.94
10706;BME280;5404;42.656;23.336;2024-03-17T11:44:13;94990.53;;;18.89;32.83
10706;BME280;5404;42.656;23.336;2024-03-17T11:46:40;94984.19;;;18.61;31.69
10706;BME280;5404;42.656;23.336;2024-03-17T11:49:06;94982.88;;;17.64;32.74
10706;BME280;5404;42.656;23.336;2024-03-17T11:51:34;94989.03;;;16.68;33.72
10706;BME280;5404;42.656;23.336;2024-03-17T11:54:01;94991.78;;;17.02;33.79
10706;BME280;5404;42.656;23.336;2024-03-17T11:56:26;94988.75;;;16.88;34.54
10706;BME280;5404;42.656;23.336;2024-03-17T11:59:05;94993.06;;;17.32;33.83
10706;BME280;5404;42.656;23.336;2024-03-17T12:01:34;94977.78;;;19.00;30.45
10706;BME280;5404;42.656;23.336;2024-03-17T12:03:59;94962.44;;;19.08;29.98
10706;BME280;5404;42.656;23.336;2024-03-17T12:06:30;94959.34;;;18.61;30.71
10706;BME280;5404;42.656;23.336;2024-03-17T12:09:08;94953.13;;;16.12;34.14
10706;BME280;5404;42.656;23.336;2024-03-17T12:11:35;94981.66;;;16.52;34.40
10706;BME280;5404;42.656;23.336;2024-03-17T12:14:12;94957.09;;;16.70;34.39
10706;BME280;5404;42.656;23.336;2024-03-17T12:16:46;94994.41;;;16.71;34.36
10706;BME280;5404;42.656;23.336;2024-03-17T12:19:13;94986.97;;;16.47;33.91
10706;BME280;5404;42.656;23.336;2024-03-17T12:21:41;94986.22;;;16.33;34.61
10706;BME280;5404;42.656;23.336;2024-03-17T12:24:15;94980.66;;;15.45;36.34
10706;BME280;5404;42.656;23.336;2024-03-17T12:26:42;94984.56;;;14.89;37.40
10706;BME280;5404;42.656;23.336;2024-03-17T12:29:25;94976.75;;;14.88;37.84
10706;BME280;5404;42.656;23.336;2024-03-17T12:31:53;94966.63;;;14.24;38.32
10706;BME280;5404;42.656;23.336;2024-03-17T12:34:20;94988.03;;;13.96;39.76
10706;BME280;5404;42.656;23.336;2024-03-17T12:36:46;94954.06;;;13.78;40.72
10706;BME280;5404;42.656;23.336;2024-03-17T12:39:24;94987.53;;;14.01;41.27
10706;BME280;5404;42.656;23.336;2024-03-17T12:47:33;94974.25;;;14.16;42.40
10706;BME280;5404;42.656;23.336;2024-03-17T12:50:01;94974.19;;;14.20;42.88
10706;BME280;5404;42.656;23.336;2024-03-17T12:52:32;94976.59;;;14.34;42.04
10706;BME280;5404;42.656;23.336;2024-03-17T12:54:59;94979.84;;;14.45;42.36
10706;BME280;5404;42.656;23.336;2024-03-17T12:57:44;94980.06;;;13.86;43.63
10706;BME280;5404;42.656;23.336;2024-03-17T13:00:29;94982.66;;;14.09;43.70
10706;BME280;5404;42.656;23.336;2024-03-17T13:03:04;94968.53;;;14.10;43.74
10706;BME280;5404;42.656;23.336;2024-03-17T13:05:30;94956.44;;;14.08;43.66
10706;BME280;5404;42.656;23.336;2024-03-17T13:07:57;94967.44;;;14.40;44.10
10706;BME280;5404;42.656;23.336;2024-03-17T13:10:24;94964.66;;;14.08;44.98
10706;BME280;5404;42.656;23.336;2024-03-17T13:13:12;94960.13;;;14.01;44.91
10706;BME280;5404;42.656;23.336;2024-03-17T13:15:38;94964.06;;;13.84;45.12
10706;BME280;5404;42.656;23.336;2024-03-17T13:18:04;94978.13;;;14.02;45.88
10706;BME280;5404;42.656;23.336;2024-03-17T13:20:31;94974.16;;;14.36;44.85
10706;BME280;5404;42.656;23.336;2024-03-17T13:22:57;94964.41;;;13.50;46.16
10706;BME280;5404;42.656;23.336;2024-03-17T13:25:24;94970.59;;;13.54;46.52
10706;BME280;5404;42.656;23.336;2024-03-17T13:27:53;94942.91;;;13.68;46.38
10706;BME280;5404;42.656;23.336;2024-03-17T13:30:20;94967.38;;;13.76;46.61
10706;BME280;5404;42.656;23.336;2024-03-17T13:32:50;94974.47;;;13.73;47.15
10706;BME280;5404;42.656;23.336;2024-03-17T13:35:23;94964.88;;;13.65;46.84
10706;BME280;5404;42.656;23.336;2024-03-17T13:37:50;94972.16;;;13.55;47.56